Aérodrome :







RETROUVEZ-NOUS SUR...

 
LOGIN :

S'inscrire | Disclaimer

   EN    FR    IT 

 









Légende :    VFR   VFR Marginal   IFR   IFR Intensif   IFR Très Intensif
Visi : 
Plafond : 
>= 8 km
>= 3000ft
5 à 8 km
1000 à 3000 ft
1500m à 5 km
500 à 1000 ft
800 à 1500m
200 à 500 ft
< 800m
< 200 ft
Symboles :   Orages  Brouillard  Fortes neiges  Fortes précipitations  Vent > 20 kt






- Altitude de l'aérodrome : 72 ft
- Code IATA : YDF


CYDF - Deer Lake

DERNIER METAR :
  • 190300Z VRB03KT 15SM FEW160 SCT210 M19/M21 A3043 RMK AC1CI2 SLP309

METARs EXPIRÉS :
  • 190200Z 06006KT 340V060 15SM SKC M20/M22 A3046 RMK SLP319
  • 190100Z 00000KT 15SM FEW240 M16/M18 A3048 RMK CI2 SLP326

TAF TAF CYDF
Valide du 19 à 02h jusqu'au 19 à 14h UTC


190138Z 1902/1914 VRB03KT P6SM FEW200
FM190500 18012KT P6SM BKN100
FM190800 18010G20KT P6SM -SN SCT015 OVC070
TEMPO 1908/1912 2SM -SN OVC015
FM191200 18012G22KT 3SM -SN OVC015
TEMPO 1912/1914 3/4SM -SN VV007 RMK NXT FCST BY 190800Z



MET'MAP, la Météo Aéronautique d'un coup d'oeil ! - Copyright ORBIFLY Décembre 2007 - Disclaimer

ORBIFLY MET'MAP TEAM :

Programmation & Développement : Alexandra Zaïnal
Sur une idée originale de : Baudouin d'Aumeries
Assistance à la programmation : Marc-Olivier Méhu
Soutien technique & logistique : Manuel Goepfert

Contact : metmap@orbifly.com




SOURCES & CREDITS :

   NOAA